createdAt,value
2023-04-28T00:00:04.805Z,12.52
2023-04-28T00:01:03.951Z,12.39
2023-04-28T00:01:44.679Z,12.40
2023-04-28T00:02:24.998Z,12.37
2023-04-28T00:03:05.327Z,12.40
2023-04-28T00:03:47.113Z,12.39
2023-04-28T00:04:27.218Z,12.37
2023-04-28T00:05:07.035Z,12.41
2023-04-28T00:05:47.638Z,12.39
2023-04-28T00:06:27.920Z,12.37
2023-04-28T00:07:08.006Z,12.29
2023-04-28T00:07:48.902Z,12.23
2023-04-28T00:08:29.134Z,12.31
2023-04-28T00:09:09.934Z,12.23
2023-04-28T00:09:49.998Z,12.34
2023-04-28T00:10:29.911Z,12.31
2023-04-28T00:11:09.966Z,12.17
2023-04-28T00:11:53.929Z,12.18
2023-04-28T00:12:33.981Z,12.19
2023-04-28T00:13:13.901Z,12.18
2023-04-28T00:13:54.006Z,12.19
2023-04-28T00:14:33.925Z,12.12
2023-04-28T00:15:15.372Z,12.12
2023-04-28T00:15:58.888Z,12.19
2023-04-28T00:16:39.105Z,12.16
2023-04-28T00:17:18.933Z,12.17
2023-04-28T00:17:59.113Z,12.08
2023-04-28T00:18:39.922Z,12.17
2023-04-28T00:19:20.360Z,12.05
2023-04-28T00:20:00.873Z,12.10
2023-04-28T00:20:40.992Z,11.99
2023-04-28T00:21:20.917Z,12.04
2023-04-28T00:22:01.280Z,12.13
2023-04-28T00:22:41.947Z,12.15
2023-04-28T00:23:22.999Z,12.01
2023-04-28T00:24:03.865Z,12.05
2023-04-28T00:24:43.959Z,12.04
2023-04-28T00:25:23.890Z,11.95
2023-04-28T00:26:03.968Z,12.01
2023-04-28T00:26:43.856Z,12.11
2023-04-28T00:27:37.890Z,12.05
2023-04-28T00:28:32.910Z,12.01
2023-04-28T00:29:14.989Z,11.96
2023-04-28T00:29:54.896Z,11.86
2023-04-28T00:30:37.001Z,11.86
2023-04-28T00:31:22.953Z,11.89
2023-04-28T00:32:04.129Z,11.96
2023-04-28T00:32:43.914Z,11.96
2023-04-28T00:33:30.915Z,11.96
2023-04-28T00:34:24.904Z,11.87
2023-04-28T00:35:19.916Z,11.93
2023-04-28T00:36:14.908Z,11.93
2023-04-28T00:37:08.908Z,11.86
2023-04-28T00:38:02.894Z,11.89
2023-04-28T00:38:49.979Z,11.87
2023-04-28T00:39:23.988Z,11.77
2023-04-28T00:40:11.896Z,11.89
2023-04-28T00:40:46.959Z,11.82
2023-04-28T00:41:33.897Z,11.83
2023-04-28T00:42:07.961Z,11.76
2023-04-28T00:42:54.887Z,11.75
2023-04-28T00:43:29.105Z,11.64
2023-04-28T00:44:09.922Z,11.73
2023-04-28T00:44:49.962Z,11.73
2023-04-28T00:45:29.929Z,11.77
2023-04-28T00:46:10.016Z,11.77
2023-04-28T00:46:51.098Z,11.72
2023-04-28T00:47:49.905Z,11.80
2023-04-28T00:48:43.875Z,11.74
2023-04-28T00:49:31.894Z,11.70
2023-04-28T00:50:10.595Z,11.73
2023-04-28T00:50:58.850Z,11.70
2023-04-28T00:51:33.888Z,11.69
2023-04-28T00:52:20.855Z,11.58
2023-04-28T00:52:54.960Z,11.63
2023-04-28T00:53:41.864Z,11.56
2023-04-28T00:54:17.287Z,11.62
2023-04-28T00:54:57.907Z,11.51
2023-04-28T00:55:39.987Z,11.60
2023-04-28T00:56:20.864Z,11.53
2023-04-28T00:57:02.825Z,11.47
2023-04-28T00:57:43.862Z,11.47
2023-04-28T00:58:23.948Z,11.44
2023-04-28T00:59:04.848Z,11.53
2023-04-28T00:59:44.970Z,11.52
2023-04-28T01:00:25.876Z,11.52
2023-04-28T01:01:10.995Z,11.44
2023-04-28T01:01:50.874Z,11.50
2023-04-28T01:02:32.118Z,11.47
2023-04-28T01:03:12.045Z,11.51
2023-04-28T01:03:52.221Z,11.36
2023-04-28T01:04:34.012Z,11.51
2023-04-28T01:05:16.045Z,11.44
2023-04-28T01:05:56.863Z,11.42
2023-04-28T01:06:38.178Z,11.51
2023-04-28T01:07:18.858Z,11.50
2023-04-28T01:07:59.951Z,11.44
2023-04-28T01:08:42.840Z,11.53
2023-04-28T01:09:22.983Z,11.42
2023-04-28T01:10:02.847Z,11.44
2023-04-28T01:10:42.926Z,11.44
2023-04-28T01:11:23.934Z,11.43
2023-04-28T01:12:03.911Z,11.51
2023-04-28T01:12:44.839Z,11.40
2023-04-28T01:13:24.941Z,11.40
2023-04-28T01:14:06.869Z,11.48
2023-04-28T01:15:01.945Z,11.39
2023-04-28T01:15:55.854Z,11.47
2023-04-28T01:16:44.923Z,11.50
2023-04-28T01:17:18.910Z,11.42
2023-04-28T01:18:06.862Z,11.53
2023-04-28T01:18:41.070Z,11.43
2023-04-28T01:19:29.857Z,11.53
2023-04-28T01:20:04.696Z,11.53
2023-04-28T01:20:51.840Z,11.35
2023-04-28T01:21:36.041Z,11.35
2023-04-28T01:22:21.876Z,11.34
2023-04-28T01:23:01.976Z,11.27
2023-04-28T01:23:41.831Z,11.34
2023-04-28T01:24:22.955Z,11.23
2023-04-28T01:25:03.808Z,11.21
2023-04-28T01:25:43.941Z,11.13
2023-04-28T01:26:23.823Z,11.28
2023-04-28T01:27:03.956Z,11.38
2023-04-28T01:27:43.840Z,11.34
2023-04-28T01:28:23.907Z,11.32
2023-04-28T01:29:04.821Z,11.33
2023-04-28T01:29:44.897Z,11.31
2023-04-28T01:30:24.849Z,11.35
2023-04-28T01:31:04.950Z,11.33
2023-04-28T01:31:44.844Z,11.26
2023-04-28T01:32:24.965Z,11.36
2023-04-28T01:33:05.875Z,11.22
2023-04-28T01:33:45.911Z,11.22
2023-04-28T01:34:26.851Z,11.32
2023-04-28T01:35:07.226Z,11.31
2023-04-28T01:35:46.833Z,11.19
2023-04-28T01:36:28.477Z,11.22
2023-04-28T01:37:09.795Z,11.21
2023-04-28T01:37:49.891Z,11.20
2023-04-28T01:38:29.816Z,11.09
2023-04-28T01:39:09.922Z,11.07
2023-04-28T01:39:49.833Z,11.16
2023-04-28T01:40:29.966Z,11.18
2023-04-28T01:41:10.827Z,11.20
2023-04-28T01:41:50.973Z,11.10
2023-04-28T01:42:31.820Z,11.13
2023-04-28T01:43:11.939Z,11.03
2023-04-28T01:43:51.872Z,11.17
2023-04-28T01:44:31.908Z,11.09
2023-04-28T01:45:12.832Z,11.17
2023-04-28T01:45:52.959Z,11.15
2023-04-28T01:46:33.956Z,11.17
2023-04-28T01:47:13.980Z,11.14
2023-04-28T01:47:53.838Z,10.97
2023-04-28T01:48:33.937Z,10.98
2023-04-28T01:49:14.805Z,11.14
2023-04-28T01:49:54.887Z,11.06
2023-04-28T01:50:34.793Z,11.04
2023-04-28T01:51:14.879Z,11.09
2023-04-28T01:51:54.800Z,10.97
2023-04-28T01:52:34.895Z,11.09
2023-04-28T01:53:15.814Z,10.99
2023-04-28T01:53:55.972Z,11.04
2023-04-28T01:54:35.829Z,11.04
2023-04-28T01:55:15.983Z,10.87
2023-04-28T01:55:55.807Z,10.99
2023-04-28T01:56:36.220Z,10.97
2023-04-28T01:57:17.702Z,10.90
2023-04-28T01:57:58.470Z,11.05
2023-04-28T01:58:38.851Z,11.05
2023-04-28T01:59:20.403Z,11.04
2023-04-28T02:00:01.833Z,10.92
2023-04-28T02:00:41.914Z,10.97
2023-04-28T02:01:22.844Z,10.89
2023-04-28T02:02:03.043Z,10.87
2023-04-28T02:02:43.821Z,10.93
2023-04-28T02:03:24.161Z,10.83
2023-04-28T02:04:03.838Z,10.85
2023-04-28T02:04:46.151Z,10.80
2023-04-28T02:05:26.829Z,10.77
2023-04-28T02:06:07.209Z,10.78
2023-04-28T02:06:47.791Z,10.79
2023-04-28T02:07:27.924Z,10.76
2023-04-28T02:08:07.786Z,10.58
2023-04-28T02:08:47.881Z,10.63
2023-04-28T02:09:28.796Z,10.63
2023-04-28T02:10:08.924Z,10.66
2023-04-28T02:10:48.800Z,10.58
2023-04-28T02:11:28.916Z,10.63
2023-04-28T02:12:08.781Z,10.50
2023-04-28T02:12:48.856Z,10.59
2023-04-28T02:13:29.815Z,10.58
2023-04-28T02:14:09.875Z,10.55
2023-04-28T02:14:50.795Z,10.53
2023-04-28T02:15:30.920Z,10.63
2023-04-28T02:16:11.866Z,10.67
2023-04-28T02:16:51.916Z,10.60
2023-04-28T02:17:32.804Z,10.62
2023-04-28T02:18:12.886Z,10.47
2023-04-28T02:18:52.787Z,10.55
2023-04-28T02:19:32.846Z,10.49
2023-04-28T02:20:13.789Z,10.59
2023-04-28T02:20:54.055Z,10.49
2023-04-28T02:21:34.806Z,10.47
2023-04-28T02:22:14.868Z,10.43
2023-04-28T02:22:54.742Z,10.46
2023-04-28T02:23:34.826Z,10.48
2023-04-28T02:24:15.957Z,10.51
2023-04-28T02:24:57.034Z,10.42
2023-04-28T02:25:37.838Z,10.30
2023-04-28T02:26:17.877Z,10.31
2023-04-28T02:26:57.772Z,10.14
2023-04-28T02:27:38.303Z,10.32
2023-04-28T02:28:19.764Z,10.24
2023-04-28T02:29:00.131Z,10.34
2023-04-28T02:29:40.774Z,10.33
2023-04-28T02:30:20.863Z,10.35
2023-04-28T02:31:09.827Z,10.35
2023-04-28T02:31:49.868Z,10.39
2023-04-28T02:32:29.855Z,10.27
2023-04-28T02:33:09.890Z,10.20
2023-04-28T02:33:50.782Z,10.28
2023-04-28T02:34:30.885Z,10.21
2023-04-28T02:35:11.738Z,10.20
2023-04-28T02:35:51.844Z,10.33
2023-04-28T02:36:32.740Z,10.24
2023-04-28T02:37:12.879Z,10.19
2023-04-28T02:37:53.823Z,10.28
2023-04-28T02:38:33.846Z,10.33
2023-04-28T02:39:13.768Z,10.27
2023-04-28T02:39:53.873Z,10.33
2023-04-28T02:40:33.795Z,10.29
2023-04-28T02:41:15.364Z,10.33
2023-04-28T02:41:56.837Z,10.33
2023-04-28T02:42:36.873Z,10.37
2023-04-28T02:43:16.762Z,10.33
2023-04-28T02:43:56.985Z,10.25
2023-04-28T02:44:37.751Z,10.35
2023-04-28T02:45:17.870Z,10.37
2023-04-28T02:45:58.765Z,10.42
2023-04-28T02:46:38.916Z,10.45
2023-04-28T02:47:18.768Z,10.45
2023-04-28T02:48:02.344Z,10.21
2023-04-28T02:48:43.828Z,10.33
2023-04-28T02:49:23.807Z,10.39
2023-04-28T02:50:04.756Z,10.36
2023-04-28T02:50:46.188Z,10.36
2023-04-28T02:51:25.750Z,10.37
2023-04-28T02:52:05.870Z,10.26
2023-04-28T02:52:47.120Z,10.20
2023-04-28T02:53:28.859Z,10.26
2023-04-28T02:54:09.743Z,10.34
2023-04-28T02:54:54.294Z,10.19
2023-04-28T02:55:35.742Z,10.33
2023-04-28T02:56:15.884Z,10.27
2023-04-28T02:56:55.752Z,10.33
2023-04-28T02:57:35.844Z,10.34
2023-04-28T02:58:16.746Z,10.34
2023-04-28T02:58:56.836Z,10.32
2023-04-28T02:59:37.738Z,10.21
2023-04-28T03:00:18.806Z,10.11
2023-04-28T03:00:58.726Z,10.28
2023-04-28T03:01:38.859Z,10.27
2023-04-28T03:02:19.742Z,10.28
2023-04-28T03:03:00.024Z,10.25
2023-04-28T03:03:39.843Z,10.25
2023-04-28T03:04:20.357Z,10.30
2023-04-28T03:05:00.796Z,10.33
2023-04-28T03:05:40.832Z,10.22
2023-04-28T03:06:21.739Z,10.31
2023-04-28T03:07:01.854Z,10.23
2023-04-28T03:07:42.695Z,10.26
2023-04-28T03:08:23.001Z,10.32
2023-04-28T03:09:02.731Z,10.35
2023-04-28T03:09:42.812Z,10.28
2023-04-28T03:10:23.743Z,10.27
2023-04-28T03:11:03.865Z,10.30
2023-04-28T03:11:43.722Z,10.25
2023-04-28T03:12:23.830Z,10.35
2023-04-28T03:13:03.721Z,10.21
2023-04-28T03:13:43.840Z,10.24
2023-04-28T03:14:24.699Z,10.17
2023-04-28T03:15:04.892Z,10.21
2023-04-28T03:15:44.732Z,10.21
2023-04-28T03:16:24.835Z,10.10
2023-04-28T03:17:04.738Z,10.01
2023-04-28T03:17:45.849Z,10.07
2023-04-28T03:18:28.712Z,9.94
2023-04-28T03:19:08.802Z,10.14
2023-04-28T03:19:48.734Z,10.03
2023-04-28T03:20:28.806Z,9.99
2023-04-28T03:21:09.724Z,10.04
2023-04-28T03:21:49.805Z,10.06
2023-04-28T03:22:29.692Z,10.05
2023-04-28T03:23:09.826Z,10.10
2023-04-28T03:23:49.710Z,10.10
2023-04-28T03:24:29.831Z,10.15
2023-04-28T03:25:11.725Z,10.08
2023-04-28T03:25:51.838Z,10.10
2023-04-28T03:26:32.734Z,10.06
2023-04-28T03:27:12.777Z,9.99
2023-04-28T03:27:52.695Z,10.16
2023-04-28T03:28:32.817Z,10.09
2023-04-28T03:29:13.683Z,9.98
2023-04-28T03:29:53.780Z,10.08
2023-04-28T03:30:34.717Z,9.98
2023-04-28T03:31:14.800Z,10.09
2023-04-28T03:31:54.762Z,10.10
2023-04-28T03:32:34.833Z,10.05
2023-04-28T03:33:15.695Z,10.04
2023-04-28T03:33:55.799Z,9.91
2023-04-28T03:34:35.734Z,10.04
2023-04-28T03:35:15.900Z,10.10
2023-04-28T03:35:55.692Z,10.03
2023-04-28T03:36:36.116Z,10.04
2023-04-28T03:37:16.723Z,10.05
2023-04-28T03:37:56.808Z,10.05
2023-04-28T03:38:36.698Z,10.08
2023-04-28T03:39:16.866Z,10.06
2023-04-28T03:39:57.707Z,10.15
2023-04-28T03:40:37.764Z,9.98
2023-04-28T03:41:18.693Z,10.04
2023-04-28T03:41:58.784Z,10.05
2023-04-28T03:42:38.735Z,10.05
2023-04-28T03:43:18.804Z,10.11
2023-04-28T03:43:59.757Z,10.01
2023-04-28T03:44:39.860Z,10.07
2023-04-28T03:45:20.728Z,10.08
2023-04-28T03:46:00.800Z,9.85
2023-04-28T03:46:40.688Z,10.02
2023-04-28T03:47:20.752Z,10.01
2023-04-28T03:48:00.738Z,9.79
2023-04-28T03:48:40.789Z,9.94
2023-04-28T03:49:21.697Z,9.98
2023-04-28T03:50:01.801Z,9.99
2023-04-28T03:50:41.693Z,9.84
2023-04-28T03:51:21.769Z,10.01
2023-04-28T03:52:01.694Z,9.96
2023-04-28T03:52:41.814Z,9.91
2023-04-28T03:53:22.751Z,9.94
2023-04-28T03:54:02.901Z,9.94
2023-04-28T03:54:42.653Z,9.76
2023-04-28T03:55:22.872Z,9.99
2023-04-28T03:56:02.679Z,9.96
2023-04-28T03:56:42.794Z,9.97
2023-04-28T03:57:23.659Z,9.88
2023-04-28T03:58:03.800Z,9.97
2023-04-28T03:58:43.689Z,9.91
2023-04-28T03:59:23.759Z,9.79
2023-04-28T04:00:03.666Z,9.89
2023-04-28T04:00:43.814Z,9.91
2023-04-28T04:01:26.236Z,9.92
2023-04-28T04:02:06.854Z,9.84
2023-04-28T04:02:47.784Z,10.05
2023-04-28T04:03:28.096Z,10.05
2023-04-28T04:04:08.107Z,9.93
2023-04-28T04:04:49.031Z,9.92
2023-04-28T04:05:30.770Z,9.97
2023-04-28T04:06:24.691Z,10.11
2023-04-28T04:07:18.684Z,10.09
2023-04-28T04:08:12.634Z,9.94
2023-04-28T04:09:06.729Z,10.05
2023-04-28T04:09:47.695Z,9.96
2023-04-28T04:10:27.793Z,10.07
2023-04-28T04:11:07.661Z,10.09
2023-04-28T04:11:47.813Z,10.10
2023-04-28T04:12:27.652Z,9.94
2023-04-28T04:13:07.810Z,10.04
2023-04-28T04:13:48.654Z,10.15
2023-04-28T04:14:28.662Z,10.13
2023-04-28T04:15:03.621Z,10.00
2023-04-28T04:15:50.741Z,10.09
2023-04-28T04:16:24.814Z,10.16
2023-04-28T04:17:11.648Z,10.11
2023-04-28T04:17:45.810Z,10.09
2023-04-28T04:18:33.651Z,10.19
2023-04-28T04:19:07.866Z,10.06
2023-04-28T04:19:47.661Z,10.24
2023-04-28T04:20:27.734Z,10.18
2023-04-28T04:21:08.661Z,10.31
2023-04-28T04:21:48.782Z,10.25
2023-04-28T04:22:28.658Z,10.15
2023-04-28T04:23:08.713Z,10.16
2023-04-28T04:23:48.644Z,10.16
2023-04-28T04:24:28.763Z,10.15
2023-04-28T04:25:09.710Z,10.25
2023-04-28T04:25:49.758Z,10.19
2023-04-28T04:26:29.619Z,10.19
2023-04-28T04:27:23.681Z,10.18
2023-04-28T04:28:17.666Z,10.11
2023-04-28T04:29:11.679Z,10.13
2023-04-28T04:30:05.673Z,10.13
2023-04-28T04:30:45.646Z,10.09
2023-04-28T04:31:25.980Z,9.97
2023-04-28T04:32:05.672Z,10.03
2023-04-28T04:32:45.716Z,10.08
2023-04-28T04:33:25.621Z,10.06
2023-04-28T04:34:05.705Z,10.09
2023-04-28T04:34:45.651Z,10.07
2023-04-28T04:35:25.721Z,9.99
2023-04-28T04:36:05.684Z,9.89
2023-04-28T04:36:45.718Z,10.08
2023-04-28T04:37:25.661Z,10.03
2023-04-28T04:38:05.796Z,10.11
2023-04-28T04:38:45.622Z,9.96
2023-04-28T04:39:25.721Z,10.05
2023-04-28T04:40:05.637Z,10.06
2023-04-28T04:40:47.883Z,10.04
2023-04-28T04:41:28.663Z,9.88
2023-04-28T04:42:23.168Z,9.93
2023-04-28T04:43:04.631Z,9.87
2023-04-28T04:43:44.785Z,9.89
2023-04-28T04:44:25.621Z,9.87
2023-04-28T04:45:05.749Z,9.96
2023-04-28T04:45:46.642Z,9.87
2023-04-28T04:46:26.863Z,9.77
2023-04-28T04:47:06.643Z,9.93
2023-04-28T04:47:48.386Z,9.85
2023-04-28T04:48:29.638Z,9.89
2023-04-28T04:49:09.779Z,9.84
2023-04-28T04:49:50.663Z,9.91
2023-04-28T04:50:30.706Z,9.92
2023-04-28T04:51:11.620Z,9.95
2023-04-28T04:51:51.925Z,9.96
2023-04-28T04:52:32.623Z,9.98
2023-04-28T04:53:16.070Z,10.00
2023-04-28T04:53:56.605Z,10.00
2023-04-28T04:54:36.773Z,10.06
2023-04-28T04:55:17.696Z,10.06
2023-04-28T04:55:57.712Z,10.07
2023-04-28T04:56:38.778Z,9.98
2023-04-28T04:57:19.796Z,10.05
2023-04-28T04:57:59.765Z,10.04
2023-04-28T04:58:39.702Z,10.07
2023-04-28T04:59:19.611Z,10.04
2023-04-28T04:59:59.745Z,9.97
2023-04-28T05:00:40.650Z,9.95
2023-04-28T05:01:20.768Z,10.10
2023-04-28T05:02:00.686Z,10.00
2023-04-28T05:02:41.159Z,10.21
2023-04-28T05:03:21.730Z,10.17
2023-04-28T05:04:01.879Z,10.14
2023-04-28T05:04:42.803Z,10.34
2023-04-28T05:05:23.140Z,10.38
2023-04-28T05:06:03.616Z,10.40
2023-04-28T05:06:43.696Z,10.38
2023-04-28T05:07:23.606Z,10.48
2023-04-28T05:08:03.755Z,10.47
2023-04-28T05:08:44.643Z,10.51
2023-04-28T05:09:24.696Z,10.52
2023-04-28T05:10:04.607Z,10.52
2023-04-28T05:10:44.779Z,10.32
2023-04-28T05:11:25.597Z,10.49
2023-04-28T05:12:05.746Z,10.61
2023-04-28T05:12:49.021Z,10.59
2023-04-28T05:13:30.693Z,10.69
2023-04-28T05:14:11.682Z,10.71
2023-04-28T05:14:51.807Z,10.68
2023-04-28T05:15:32.638Z,10.73
2023-04-28T05:16:13.700Z,10.70
2023-04-28T05:16:54.670Z,10.62
2023-04-28T05:17:34.801Z,10.73
2023-04-28T05:18:17.670Z,10.75
2023-04-28T05:18:57.775Z,10.77
2023-04-28T05:19:37.619Z,10.78
2023-04-28T05:20:17.706Z,10.78
2023-04-28T05:20:58.614Z,10.75
2023-04-28T05:21:39.712Z,10.78
2023-04-28T05:22:19.808Z,10.86
2023-04-28T05:22:59.714Z,10.88
2023-04-28T05:23:39.596Z,10.85
2023-04-28T05:24:23.901Z,10.80
2023-04-28T05:25:04.637Z,10.79
2023-04-28T05:25:44.762Z,10.78
2023-04-28T05:26:24.634Z,10.81
2023-04-28T05:27:08.703Z,10.81
2023-04-28T05:27:49.599Z,10.82
2023-04-28T05:28:29.699Z,10.82
2023-04-28T05:29:10.760Z,10.85
2023-04-28T05:29:50.797Z,10.87
2023-04-28T05:30:30.610Z,10.90
2023-04-28T05:31:10.692Z,10.88
2023-04-28T05:31:50.660Z,10.82
2023-04-28T05:32:30.813Z,10.89
2023-04-28T05:33:11.633Z,10.62
2023-04-28T05:33:51.884Z,10.77
2023-04-28T05:34:31.600Z,10.47
2023-04-28T05:35:12.787Z,10.38
2023-04-28T05:35:52.612Z,10.49
2023-04-28T05:36:33.695Z,10.56
2023-04-28T05:37:14.586Z,10.49
2023-04-28T05:37:54.697Z,10.46
2023-04-28T05:38:35.561Z,10.57
2023-04-28T05:39:15.680Z,10.62
2023-04-28T05:39:55.625Z,10.49
2023-04-28T05:40:35.756Z,10.56
2023-04-28T05:41:16.602Z,10.61
2023-04-28T05:41:58.574Z,10.64
2023-04-28T05:42:38.567Z,10.62
2023-04-28T05:43:18.673Z,10.65
2023-04-28T05:43:58.597Z,10.71
2023-04-28T05:44:38.976Z,10.78
2023-04-28T05:45:20.577Z,10.73
2023-04-28T05:46:00.880Z,10.82
2023-04-28T05:46:41.679Z,10.91
2023-04-28T05:47:21.678Z,10.94
2023-04-28T05:48:02.649Z,10.96
2023-04-28T05:48:42.677Z,11.07
2023-04-28T05:49:24.633Z,11.10
2023-04-28T05:50:04.637Z,11.04
2023-04-28T05:50:44.588Z,10.92
2023-04-28T05:51:24.765Z,11.05
2023-04-28T05:52:04.613Z,11.01
2023-04-28T05:52:44.718Z,11.06
2023-04-28T05:53:26.638Z,11.11
2023-04-28T05:54:06.842Z,11.09
2023-04-28T05:54:47.587Z,11.10
2023-04-28T05:55:28.014Z,11.09
2023-04-28T05:56:07.550Z,11.13
2023-04-28T05:56:47.710Z,11.11
2023-04-28T05:57:29.355Z,11.04
2023-04-28T05:58:11.706Z,11.24
2023-04-28T05:58:52.592Z,11.30
2023-04-28T05:59:33.911Z,11.25
2023-04-28T06:00:14.592Z,11.38
2023-04-28T06:00:55.122Z,11.34
2023-04-28T06:02:40.768Z,11.44
2023-04-28T06:03:18.806Z,11.46
2023-04-28T06:04:07.884Z,11.53
2023-04-28T06:04:44.275Z,11.55
2023-04-28T06:05:32.793Z,11.42
2023-04-28T06:06:09.998Z,11.47
2023-04-28T06:07:06.624Z,11.48
2023-04-28T06:07:49.787Z,11.50
2023-04-28T06:08:45.678Z,11.68
2023-04-28T06:09:39.623Z,11.73
2023-04-28T06:10:35.546Z,11.70
2023-04-28T06:11:30.674Z,11.71
2023-04-28T06:12:24.553Z,11.68
2023-04-28T06:13:13.953Z,11.67
2023-04-28T06:13:49.650Z,11.67
2023-04-28T06:14:38.575Z,11.62
2023-04-28T06:15:14.739Z,11.68
2023-04-28T06:16:03.665Z,11.61
2023-04-28T06:16:37.642Z,11.70
2023-04-28T06:17:25.560Z,11.74
2023-04-28T06:17:59.780Z,11.71
2023-04-28T06:18:42.907Z,11.82
2023-04-28T06:19:22.664Z,11.86
2023-04-28T06:20:03.537Z,11.83
2023-04-28T06:20:43.637Z,11.78
2023-04-28T06:21:25.553Z,11.80
2023-04-28T06:22:05.675Z,11.82
2023-04-28T06:22:47.526Z,11.93
2023-04-28T06:23:27.619Z,11.98
2023-04-28T06:24:10.529Z,12.03
2023-04-28T06:24:50.611Z,12.03
2023-04-28T06:25:31.554Z,12.07
2023-04-28T06:26:11.674Z,12.08
2023-04-28T06:26:53.515Z,12.17
2023-04-28T06:27:34.641Z,12.22
2023-04-28T06:28:15.565Z,12.23
2023-04-28T06:28:55.848Z,12.26
2023-04-28T06:29:36.622Z,12.32
2023-04-28T06:30:17.030Z,12.20
2023-04-28T06:30:57.580Z,12.31
2023-04-28T06:31:37.704Z,12.16
2023-04-28T06:32:19.606Z,12.25
2023-04-28T06:32:59.697Z,12.39
2023-04-28T06:33:44.821Z,12.38
2023-04-28T06:34:28.735Z,12.40
2023-04-28T06:35:08.565Z,12.40
2023-04-28T06:35:48.615Z,12.32
2023-04-28T06:36:29.518Z,12.34
2023-04-28T06:37:09.617Z,12.31
2023-04-28T06:37:50.528Z,12.37
2023-04-28T06:38:30.689Z,12.35
2023-04-28T06:39:10.527Z,12.17
2023-04-28T06:39:50.596Z,12.32
2023-04-28T06:40:31.554Z,12.19
2023-04-28T06:41:11.677Z,12.33
2023-04-28T06:41:51.509Z,12.40
2023-04-28T06:42:31.594Z,12.37
2023-04-28T06:43:12.495Z,12.47
2023-04-28T06:43:52.673Z,12.43
2023-04-28T06:44:34.808Z,12.52
2023-04-28T06:45:17.797Z,12.47
2023-04-28T06:45:57.563Z,12.52
2023-04-28T06:46:37.738Z,12.57
2023-04-28T06:47:17.563Z,12.36
2023-04-28T06:47:57.648Z,12.49
2023-04-28T06:48:38.504Z,12.61
2023-04-28T06:49:18.662Z,12.64
2023-04-28T06:49:58.503Z,12.76
2023-04-28T06:50:38.643Z,12.81
2023-04-28T06:51:18.527Z,12.80
2023-04-28T06:51:59.696Z,12.65
2023-04-28T06:52:40.502Z,12.63
2023-04-28T06:53:20.874Z,12.75
2023-04-28T06:54:00.493Z,12.75
2023-04-28T06:54:40.841Z,12.87
2023-04-28T06:55:23.496Z,12.86
2023-04-28T06:56:03.764Z,12.89
2023-04-28T06:56:44.538Z,12.96
2023-04-28T06:57:24.625Z,13.07
2023-04-28T06:58:04.576Z,13.07
2023-04-28T06:58:44.705Z,13.06
2023-04-28T06:59:24.489Z,13.12
2023-04-28T07:00:04.698Z,13.12
2023-04-28T07:00:45.506Z,13.17
2023-04-28T07:01:25.749Z,13.21
2023-04-28T07:02:05.598Z,13.19
2023-04-28T07:02:45.811Z,13.14
2023-04-28T07:03:25.550Z,13.14
2023-04-28T07:04:05.667Z,13.21
2023-04-28T07:04:46.565Z,13.08
2023-04-28T07:05:26.598Z,13.17
2023-04-28T07:06:06.599Z,13.32
2023-04-28T07:06:46.888Z,13.35
2023-04-28T07:07:26.597Z,13.36
2023-04-28T07:08:06.768Z,13.08
2023-04-28T07:08:48.501Z,13.13
2023-04-28T07:09:22.326Z,13.25
2023-04-28T07:10:09.509Z,13.23
2023-04-28T07:10:43.241Z,13.24
2023-04-28T07:11:30.567Z,13.18
2023-04-28T07:12:04.831Z,13.23
2023-04-28T07:12:52.591Z,13.28
2023-04-28T07:13:26.258Z,13.19
2023-04-28T07:14:14.677Z,13.31
2023-04-28T07:14:48.711Z,13.36
2023-04-28T07:15:37.822Z,13.34
2023-04-28T07:16:11.864Z,13.26
2023-04-28T07:16:59.458Z,13.24
2023-04-28T07:17:33.378Z,13.31
2023-04-28T07:18:13.535Z,13.36
2023-04-28T07:18:47.667Z,13.42
2023-04-28T07:19:21.301Z,13.37
2023-04-28T07:20:01.470Z,13.28
2023-04-28T07:20:35.813Z,13.25
2023-04-28T07:21:09.348Z,13.23
2023-04-28T07:21:49.492Z,13.34
2023-04-28T07:22:23.633Z,13.40
2023-04-28T07:22:57.179Z,13.43
2023-04-28T07:23:38.561Z,13.54
2023-04-28T07:24:13.612Z,13.48
2023-04-28T07:24:47.210Z,13.61
2023-04-28T07:25:28.550Z,13.51
2023-04-28T07:26:02.559Z,13.46
2023-04-28T07:26:36.241Z,13.49
2023-04-28T07:27:16.477Z,13.54
2023-04-28T07:27:54.113Z,13.60
2023-04-28T07:28:28.556Z,13.73
2023-04-28T07:29:09.479Z,13.67
2023-04-28T07:29:44.568Z,13.73
2023-04-28T07:30:27.261Z,13.72
2023-04-28T07:31:09.491Z,13.69
2023-04-28T07:31:43.660Z,13.70
2023-04-28T07:32:17.298Z,13.68
2023-04-28T07:32:58.569Z,13.77
2023-04-28T07:33:32.596Z,13.79
2023-04-28T07:34:06.502Z,13.76
2023-04-28T07:34:46.505Z,13.80
2023-04-28T07:35:20.565Z,13.80
2023-04-28T07:35:54.250Z,13.81
2023-04-28T07:36:34.455Z,13.81
2023-04-28T07:37:09.763Z,13.89
2023-04-28T07:37:43.403Z,13.90
2023-04-28T07:38:24.474Z,13.95
2023-04-28T07:38:58.550Z,13.84
2023-04-28T07:39:33.951Z,13.95
2023-04-28T07:40:15.536Z,14.04
2023-04-28T07:40:49.651Z,13.96
2023-04-28T07:41:23.892Z,14.08
2023-04-28T07:42:04.518Z,14.05
2023-04-28T07:42:38.600Z,13.98
2023-04-28T07:43:12.253Z,13.97
2023-04-28T07:43:52.495Z,14.06
2023-04-28T07:44:26.550Z,14.03
2023-04-28T07:45:00.397Z,14.07
2023-04-28T07:45:43.480Z,13.89
2023-04-28T07:46:17.603Z,14.07
2023-04-28T07:46:52.388Z,14.08
2023-04-28T07:47:33.565Z,14.02
2023-04-28T07:48:07.728Z,13.89
2023-04-28T07:48:41.390Z,13.99
2023-04-28T07:49:22.434Z,14.08
2023-04-28T07:49:56.563Z,14.13
2023-04-28T07:50:30.204Z,13.98
2023-04-28T07:51:11.472Z,14.01
2023-04-28T07:51:45.564Z,13.90
2023-04-28T07:52:19.299Z,14.08
2023-04-28T07:53:00.454Z,14.12
2023-04-28T07:53:35.127Z,14.16
2023-04-28T07:54:09.228Z,14.08
2023-04-28T07:54:49.512Z,14.08
2023-04-28T07:55:23.543Z,14.04
2023-04-28T07:55:57.270Z,14.18
2023-04-28T07:56:38.574Z,14.21
2023-04-28T07:57:12.534Z,14.12
2023-04-28T07:57:46.409Z,14.16
2023-04-28T07:58:27.532Z,14.20
2023-04-28T07:59:01.677Z,14.08
2023-04-28T07:59:35.699Z,14.02
2023-04-28T08:00:16.432Z,14.09
2023-04-28T08:00:50.593Z,14.07
2023-04-28T08:01:29.478Z,14.12
2023-04-28T08:02:09.567Z,14.18
2023-04-28T08:02:43.663Z,14.25
2023-04-28T08:03:17.383Z,14.22
2023-04-28T08:03:58.635Z,14.17
2023-04-28T08:04:34.056Z,14.18
2023-04-28T08:05:10.055Z,14.35
2023-04-28T08:05:51.560Z,14.33
2023-04-28T08:06:25.661Z,14.40
2023-04-28T08:06:59.491Z,14.38
2023-04-28T08:07:39.530Z,14.39
2023-04-28T08:08:13.571Z,14.37
2023-04-28T08:08:48.173Z,14.38
2023-04-28T08:09:28.514Z,14.43
2023-04-28T08:10:02.544Z,14.19
2023-04-28T08:10:36.247Z,14.29
2023-04-28T08:11:16.430Z,14.26
2023-04-28T08:11:50.519Z,14.25
2023-04-28T08:12:24.256Z,14.26
2023-04-28T08:13:05.439Z,14.13
2023-04-28T08:13:39.548Z,14.07
2023-04-28T08:14:13.194Z,13.96
2023-04-28T08:14:55.431Z,14.06
2023-04-28T08:15:29.584Z,13.87
2023-04-28T08:16:03.405Z,14.00
2023-04-28T08:16:46.427Z,14.06
2023-04-28T08:17:20.585Z,14.19
2023-04-28T08:17:54.307Z,14.23
2023-04-28T08:18:35.528Z,14.24
2023-04-28T08:19:09.892Z,14.13
2023-04-28T08:19:46.288Z,14.33
2023-04-28T08:20:26.590Z,14.32
2023-04-28T08:21:01.492Z,14.18
2023-04-28T08:21:35.492Z,14.40
2023-04-28T08:22:15.391Z,14.38
2023-04-28T08:22:55.603Z,14.48
2023-04-28T08:23:38.454Z,14.52
2023-04-28T08:24:18.684Z,14.60
2023-04-28T08:24:59.451Z,14.44
2023-04-28T08:25:39.535Z,14.54
2023-04-28T08:26:19.474Z,14.61
2023-04-28T08:26:59.615Z,14.68
2023-04-28T08:27:40.402Z,14.72
2023-04-28T08:28:20.507Z,14.57
2023-04-28T08:29:01.450Z,14.66
2023-04-28T08:29:41.759Z,14.67
2023-04-28T08:30:22.443Z,14.83
2023-04-28T08:31:02.721Z,14.78
2023-04-28T08:31:42.464Z,14.77
2023-04-28T08:32:22.673Z,14.84
2023-04-28T08:33:03.422Z,14.70
2023-04-28T08:33:44.760Z,14.73
2023-04-28T08:34:25.434Z,14.76
2023-04-28T08:35:05.927Z,14.79
2023-04-28T08:35:47.407Z,14.82
2023-04-28T08:36:31.847Z,14.83
2023-04-28T08:37:13.461Z,14.91
2023-04-28T08:37:53.695Z,15.01
2023-04-28T08:38:34.470Z,14.89
2023-04-28T08:39:14.534Z,14.93
2023-04-28T08:39:54.445Z,14.92
2023-04-28T08:40:34.506Z,14.98
2023-04-28T08:41:15.396Z,14.98
2023-04-28T08:41:55.595Z,14.88
2023-04-28T08:42:37.438Z,15.00
2023-04-28T08:43:17.510Z,14.95
2023-04-28T08:43:58.388Z,14.90
2023-04-28T08:44:46.548Z,14.95